Time;durP1;ratioP1;P1;durP2;ratioP2;P2;SDS_P1;SDS_P2;PMS_P1;PMS_P2;Temp;Humidity;BMP_temperature;BMP_pressure;BME280_temperature;BME280_humidity;BME280_pressure;Samples;Min_cycle;Max_cycle;Signal;HPM_P1;HPM_P2
2021/04/20 00:01:10;;;;;;;8.40;7.50;;;;;;;7.30;77.58;93846.97;827996;71;29832;-77
2021/04/20 00:16:18;;;;;;;7.28;6.58;;;;;;;7.27;77.99;93842.83;836119;70;32626;-78
2021/04/20 00:31:08;;;;;;;7.28;5.95;;;;;;;7.29;78.19;93843.33;828737;71;29698;-76
2021/04/20 00:46:11;;;;;;;6.42;5.83;;;;;;;7.31;77.99;93851.11;827610;71;30781;-78
2021/04/20 01:01:14;;;;;;;7.37;6.67;;;;;;;7.34;77.91;93854.98;827144;71;33186;-79
2021/04/20 01:16:08;;;;;;;7.47;6.78;;;;;;;7.36;77.60;93862.00;828014;71;30178;-77
2021/04/20 01:31:18;;;;;;;8.85;7.60;;;;;;;7.33;76.94;93871.71;826923;71;32694;-78
2021/04/20 01:46:11;;;;;;;8.60;7.50;;;;;;;7.26;76.66;93878.59;827706;71;30420;-78
2021/04/20 02:01:17;;;;;;;9.83;7.55;;;;;;;7.20;76.57;93876.58;827183;71;32739;-77
2021/04/20 02:16:13;;;;;;;11.83;8.13;;;;;;;7.19;76.27;93884.67;827512;71;32427;-76
2021/04/20 02:31:11;;;;;;;9.58;8.38;;;;;;;7.17;76.09;93884.18;833875;71;29755;-80
2021/04/20 02:46:17;;;;;;;10.75;9.58;;;;;;;7.21;75.97;93896.37;829653;71;32767;-77
2021/04/20 03:01:43;;;;;;;12.93;9.90;;;;;;;7.25;76.00;93901.81;827619;71;30876;-77
2021/04/20 03:16:17;;;;;;;13.53;11.15;;;;;;;7.30;75.96;93911.41;823000;71;32960;-78
2021/04/20 03:31:16;;;;;;;12.00;10.00;;;;;;;7.29;75.61;93914.55;826956;71;33038;-75
2021/04/20 03:46:21;;;;;;;12.63;10.03;;;;;;;7.30;75.61;93922.64;827097;71;33059;-79
2021/04/20 04:01:10;;;;;;;15.40;12.13;;;;;;;7.32;75.22;93937.99;834677;71;29769;-77
2021/04/20 04:16:17;;;;;;;14.45;11.95;;;;;;;7.31;74.84;93952.88;833553;71;33213;-75
2021/04/20 04:31:09;;;;;;;13.93;11.00;;;;;;;7.37;74.98;93968.72;828186;71;30205;-75
2021/04/20 04:46:12;;;;;;;14.53;11.38;;;;;;;7.49;74.52;93976.16;827438;71;31183;-76
2021/04/20 05:01:22;;;;;;;17.23;12.85;;;;;;;7.68;74.11;93984.52;822353;71;32614;-74
2021/04/20 05:16:11;;;;;;;17.75;13.48;;;;;;;7.78;73.80;93994.83;826876;71;29720;-73
2021/04/20 05:31:12;;;;;;;16.45;13.45;;;;;;;7.87;73.83;94009.33;834618;71;31517;-74
2021/04/20 05:46:15;;;;;;;21.70;15.40;;;;;;;8.18;73.58;94017.53;827566;71;33247;-78
2021/04/20 06:01:15;;;;;;;21.02;16.35;;;;;;;8.73;72.22;94026.13;826682;71;33045;-76
2021/04/20 06:16:15;;;;;;;21.17;15.25;;;;;;;9.52;69.69;94033.09;833187;71;33595;-75
2021/04/20 06:31:14;;;;;;;18.07;14.40;;;;;;;10.01;66.42;94043.36;827598;71;29931;-76
2021/04/20 06:46:17;;;;;;;19.35;15.55;;;;;;;10.75;64.00;94043.59;827829;71;29654;-76
2021/04/20 07:01:12;;;;;;;17.25;15.20;;;;;;;12.24;61.47;94036.45;827243;71;29731;-76
2021/04/20 07:16:33;;;;;;;18.48;16.17;;;;;;;13.41;55.23;94038.53;826671;71;32714;-73
2021/04/20 07:31:24;;;;;;;21.62;17.23;;;;;;;14.43;52.85;94058.35;819821;70;30263;-76
2021/04/20 07:46:27;;;;;;;16.10;14.30;;;;;;;16.63;46.97;94063.70;832819;71;32307;-74
2021/04/20 08:01:34;;;;;;;18.77;15.53;;;;;;;17.04;42.86;94080.14;826646;71;32786;-75
2021/04/20 08:16:40;;;;;;;16.12;14.43;;;;;;;16.63;41.84;94088.87;834266;71;30428;-74
2021/04/20 08:31:18;;;;;;;18.20;15.38;;;;;;;15.78;43.54;94085.22;827174;71;30292;-75
2021/04/20 08:46:47;;;;;;;19.30;16.10;;;;;;;15.07;44.21;94092.12;828109;71;31495;-77
2021/04/20 09:16:16;;;;;;;21.95;17.30;;;;;;;13.25;47.91;94107.84;833160;71;30826;-75
2021/04/20 09:31:21;;;;;;;22.48;17.27;;;;;;;12.74;50.01;94109.69;828033;71;30452;-76
2021/04/20 09:46:33;;;;;;;20.05;15.90;;;;;;;13.42;48.83;94097.27;831680;71;33033;-75
2021/04/20 10:01:12;;;;;;;16.77;13.00;;;;;;;15.72;56.86;94093.68;828240;71;30336;-76
2021/04/20 10:16:46;;;;;;;17.80;15.15;;;;;;;16.60;42.57;94068.89;827397;71;32019;-74
2021/04/20 10:31:21;;;;;;;18.60;15.20;;;;;;;16.18;41.81;94077.14;826858;71;32708;-76
2021/04/20 10:46:11;;;;;;;17.62;15.03;;;;;;;15.80;41.12;94063.73;821911;71;29756;-75
2021/04/20 11:01:08;;;;;;;17.57;14.90;;;;;;;15.91;40.13;94052.91;827069;71;29959;-76
2021/04/20 11:16:12;;;;;;;14.93;13.38;;;;;;;16.30;38.63;94037.96;821507;71;30399;-76
2021/04/20 11:31:21;;;;;;;12.93;11.50;;;;;;;15.83;40.16;94036.59;819648;71;30371;-78
2021/04/20 11:46:11;;;;;;;16.32;14.00;;;;;;;16.98;38.63;94024.72;829385;71;29616;-76
2021/04/20 12:01:11;;;;;;;14.05;12.63;;;;;;;16.77;37.80;94011.66;829309;71;29688;-79
2021/04/20 12:16:15;;;;;;;16.55;14.00;;;;;;;16.18;39.07;94008.31;833815;71;32981;-76
2021/04/20 12:31:36;;;;;;;16.82;14.70;;;;;;;15.94;40.48;94012.56;834067;71;32719;-76
2021/04/20 12:46:12;;;;;;;14.87;12.35;;;;;;;15.40;42.15;94009.56;827723;71;30753;-75
2021/04/20 13:01:17;;;;;;;16.75;13.68;;;;;;;15.03;43.47;94011.40;834947;71;32770;-77
2021/04/20 13:16:15;;;;;;;15.10;12.85;;;;;;;14.65;45.49;94014.27;827077;71;32743;-76
2021/04/20 13:31:28;;;;;;;14.75;12.35;;;;;;;14.65;47.04;94008.42;832877;71;29741;-75
2021/04/20 13:46:16;;;;;;;14.43;12.18;;;;;;;14.43;46.26;94010.28;832803;71;33285;-74
2021/04/20 14:01:11;;;;;;;13.22;11.83;;;;;;;14.17;46.76;94017.63;827372;71;30217;-76
2021/04/20 14:16:14;;;;;;;19.42;11.38;;;;;;;13.96;48.05;94033.45;827141;71;30624;-75
2021/04/20 14:31:09;;;;;;;13.08;11.68;;;;;;;13.70;51.05;94042.27;827183;71;30132;-74
2021/04/20 14:46:12;;;;;;;14.47;12.15;;;;;;;13.39;55.54;94050.48;827348;71;30373;-78
2021/04/20 15:01:43;;;;;;;13.98;12.10;;;;;;;12.90;57.57;94051.29;833402;71;29670;-76
2021/04/20 15:16:23;;;;;;;15.05;12.35;;;;;;;13.01;56.14;94057.20;813433;70;32951;-77
2021/04/20 15:31:20;;;;;;;14.55;12.82;;;;;;;13.14;56.19;94049.46;833074;71;32801;-75
2021/04/20 15:46:13;;;;;;;14.58;12.75;;;;;;;13.03;55.83;94045.81;827449;71;32008;-75
2021/04/20 16:01:10;;;;;;;12.70;11.35;;;;;;;13.11;55.60;94036.91;810711;71;29853;-73
2021/04/20 16:16:21;;;;;;;13.65;11.30;;;;;;;12.92;54.43;94048.57;834567;71;32832;-76
2021/04/20 16:31:19;;;;;;;17.30;14.68;;;;;;;12.57;54.28;94049.94;826393;71;32759;-77
2021/04/20 16:46:23;;;;;;;15.80;13.60;;;;;;;12.20;55.52;94068.41;833335;71;33380;-75
2021/04/20 17:01:27;;;;;;;16.25;14.07;;;;;;;11.90;55.46;94077.94;826932;71;30290;-76
2021/04/20 17:16:40;;;;;;;15.63;12.85;;;;;;;11.63;56.50;94108.05;824558;70;30329;-78
2021/04/20 17:31:53;;;;;;;21.20;17.15;;;;;;;11.38;57.69;94112.66;825616;71;32734;-79
2021/04/20 18:01:26;;;;;;;23.25;18.55;;;;;;;10.86;58.42;94154.34;820955;71;31505;-78
2021/04/20 18:16:17;;;;;;;27.95;19.67;;;;;;;10.63;59.09;94169.51;827695;71;30285;-77
2021/04/20 18:31:27;;;;;;;32.93;20.30;;;;;;;10.47;59.22;94185.33;827598;71;29847;-79
2021/04/20 18:46:38;;;;;;;30.12;22.50;;;;;;;10.18;61.14;94177.77;826929;71;33311;-79
2021/04/20 19:01:37;;;;;;;34.88;24.40;;;;;;;10.03;62.38;94208.97;826480;71;32733;-79
2021/04/20 19:16:59;;;;;;;31.82;25.00;;;;;;;9.85;62.53;94228.17;833157;71;31839;-78
2021/04/20 19:31:57;;;;;;;30.48;22.32;;;;;;;9.61;62.29;94238.25;828899;71;31749;-80
2021/04/20 19:46:20;;;;;;;26.17;20.00;;;;;;;9.49;62.09;94247.89;826956;71;31795;-78
2021/04/20 20:01:17;;;;;;;28.15;20.23;;;;;;;9.49;63.06;94245.27;826936;71;31900;-79
2021/04/20 20:16:20;;;;;;;20.92;15.20;;;;;;;9.34;62.08;94234.48;829379;71;31334;-78
2021/04/20 20:31:18;;;;;;;25.75;18.15;;;;;;;9.18;63.20;94258.03;821746;71;31895;-78
2021/04/20 20:47:08;;;;;;;;;;;;;;;;;;;;;
2021/04/20 21:01:58;;;;;;;26.23;19.65;;;;;;;9.19;63.74;94266.15;833367;71;31889;-77
2021/04/20 21:16:13;;;;;;;21.77;17.35;;;;;;;9.27;63.28;94281.75;833457;71;29321;-77
2021/04/20 21:31:12;;;;;;;19.87;16.32;;;;;;;9.31;64.01;94289.28;827757;71;29727;-78
2021/04/20 21:46:18;;;;;;;21.20;15.25;;;;;;;9.28;63.63;94306.31;832902;71;31831;-77
2021/04/20 22:01:11;;;;;;;16.07;13.10;;;;;;;9.45;62.41;94312.38;832836;71;29793;-79
2021/04/20 22:16:31;;;;;;;15.40;12.95;;;;;;;9.66;61.75;94318.08;833223;71;31896;-78
2021/04/20 22:31:32;;;;;;;22.70;17.48;;;;;;;9.77;61.25;94326.55;792988;74;31936;-77
2021/04/20 22:46:20;;;;;;;19.23;13.80;;;;;;;9.72;61.59;94326.64;833733;71;29211;-76
2021/04/20 23:01:18;;;;;;;13.78;11.50;;;;;;;9.69;61.96;94332.44;823237;71;29049;-77
2021/04/20 23:16:14;;;;;;;13.00;10.85;;;;;;;9.68;62.39;94340.84;833197;71;32604;-77
2021/04/20 23:31:33;;;;;;;11.45;9.58;;;;;;;9.67;62.65;94341.92;827922;71;30703;-77
2021/04/20 23:46:09;;;;;;;9.48;8.38;;;;;;;9.64;63.19;94341.16;827764;71;29713;-77
